Tiempo atmosférico en la estación meteorológica de Bunyola, Sierra de Alfabia, Illes Balears (1030 m.)



Fecha
DESCASC
Temp. máxima en grados centígrados (hora)
DESCASC
Temp. mínima en grados centígrados (hora)
DESCASC
Temp. media en grados centígrados
DESCASC
Racha de viento máxima en m/sg (hora)
DESCASC
Velocidad máxima media en intervalos de 10 minutos(hora)
DESCASC
Precipitaciones diarias en mm
DESCASC
Precipitaciones de 00:00 a 06:00 en mm
DESCASC
Precipitaciones de 06:00 a 12:00 en mm
DESCASC
Precipitaciones de 12:00 a 18:00 en mm
DESCASC
Precipitaciones de 18:00 a 24:00 en mm
DESCASC

Gráficas

Temp. máximas Temp. mínimas Temp. medias Precipitaciones Rachas de viento máximas Velocidades máximas media en intervalos de 10 minutos

Datos horarios

Fecha y hora oficial Temperatura (ºC) Velocidad del viento (km/h) Dirección del viento Racha (km/h) Dirección de racha Precipitación (mm) Presión (hPa) Tendencia (hPa) Humedad (%)
2020-01-18 23:00:00 5.3 15 Sur 30 Sudoeste 0 -- -- 99
2020-01-18 22:00:00 5.1 17 Sudoeste 31 Sudoeste 0 -- -- 99
2020-01-18 21:00:00 5.4 21 Sudoeste 33 Sudoeste 0 -- -- 97
2020-01-18 20:00:00 5.8 17 Sur 30 Sudoeste 0 -- -- 85
2020-01-18 19:00:00 5.1 15 Sur 23 Sur 0 -- -- 99
2020-01-18 18:00:00 5.1 14 Sur 22 Sur 0 -- -- 89
2020-01-18 17:00:00 6.7 15 Sur 20 Sudoeste 0 -- -- 87
2020-01-18 16:00:00 7.8 12 Sur 29 Oeste 0 -- -- 71
2020-01-18 15:00:00 8.8 9 Sudoeste 25 Sudoeste 0 -- -- 70
2020-01-18 14:00:00 9.1 14 Sudoeste 34 Sudoeste 0 -- -- 63
2020-01-18 13:00:00 7.7 20 Sudoeste 32 Sudoeste 0 -- -- 57
2020-01-18 12:00:00 6.5 10 Noroeste 19 Oeste 0 -- -- 60
2020-01-18 11:00:00 5.6 14 Noroeste 26 Noroeste 0 -- -- 59
2020-01-18 10:00:00 5.2 13 Noroeste 17 Noroeste 0 -- -- 52
2020-01-18 09:00:00 5 11 Noroeste 21 Noroeste 0 -- -- 59
2020-01-18 08:00:00 4.6 14 Noroeste 25 Noroeste 0 -- -- 62
2020-01-18 07:00:00 4.7 12 Noroeste 23 Noroeste 0 -- -- 65
2020-01-18 06:00:00 4.2 14 Norte 23 Noroeste 0 -- -- 93
2020-01-18 05:00:00 4.4 17 Noroeste 26 Norte 0 -- -- 96
2020-01-18 04:00:00 4.6 20 Noroeste 35 Noroeste 0 -- -- 91
2020-01-18 03:00:00 4.7 18 Noroeste 31 Noroeste 0 -- -- 88
2020-01-18 02:00:00 5 21 Noroeste 38 Noroeste 0 -- -- 91
2020-01-18 01:00:00 5.3 30 Noroeste 49 Norte 0 -- -- 70
2020-01-18 00:00:00 5.6 33 Noroeste 48 Noroeste 0 -- -- 87
2020-01-17 23:00:00 5.8 29 Noroeste 56 Noroeste 0 -- -- 99
2020-01-17 22:00:00 6.4 35 Noroeste 59 Noroeste 0 -- -- 89
2020-01-17 21:00:00 6.8 41 Noroeste 66 Noroeste 0 -- -- 84
2020-01-17 20:00:00 6.7 41 Noroeste 53 Noroeste 0 -- -- 87
2020-01-17 19:00:00 6.6 30 Noroeste 46 Noroeste 0 -- -- 77
2020-01-17 18:00:00 6.7 28 Noroeste 51 Noroeste 0 -- -- 77
2020-01-17 17:00:00 7.8 30 Noroeste 47 Noroeste 0 -- -- 74
2020-01-17 16:00:00 9 36 Noroeste 55 Noroeste 0 -- -- 69
2020-01-17 15:00:00 9.6 32 Noroeste 49 Noroeste 0 -- -- 67
2020-01-17 14:00:00 9.9 22 Noroeste 41 Oeste 0 -- -- 70
2020-01-17 13:00:00 10.5 12 Noroeste 36 Sudoeste 0 -- -- 61
2020-01-17 12:00:00 9.4 15 Sudoeste 36 Oeste 0 -- -- 64
2020-01-17 11:00:00 8.4 14 Oeste 36 Sudoeste 0 -- -- 78
2020-01-17 10:00:00 6.7 19 Sur 36 Sudoeste 0 -- -- 99
2020-01-17 09:00:00 7.2 22 Sudoeste 38 Sudoeste 0 -- -- 99
2020-01-17 08:00:00 7 23 Sudoeste 35 Sudoeste 0 -- -- 99
2020-01-17 07:00:00 8.1 24 Sudoeste 44 Oeste 0 -- -- 92
2020-01-17 06:00:00 8.5 32 Oeste 42 Oeste 0 -- -- 80
2020-01-17 05:00:00 6.1 22 Sudoeste 35 Sudoeste 0 -- -- 97
2020-01-17 04:00:00 6.7 24 Sudoeste 36 Sudoeste 0 -- -- 88
2020-01-17 03:00:00 6.4 26 Sur 34 Sudoeste 0 -- -- 90
2020-01-17 02:00:00 6.2 18 Sur 27 Sudoeste 0 -- -- 99
2020-01-17 01:00:00 6.8 18 Sudoeste 25 Sudoeste 0 -- -- 77
2020-01-17 00:00:00 6.1 16 Sur 23 Sur 0 -- -- 99
2020-01-16 23:00:00 7.9 16 Sur 22 Sudoeste 0 -- -- 65
2020-01-16 22:00:00 7.9 15 Sur 21 Sur 0 -- -- 63
2020-01-16 21:00:00 7.7 14 Sur 22 Sur 0 -- -- 74
2020-01-16 20:00:00 7.9 14 Sur 20 Sudoeste 0 -- -- 63
2020-01-16 19:00:00 8.2 13 Sur 18 Sur 0 -- -- 58
2020-01-16 18:00:00 8.3 11 Sur 15 Sudoeste 0 -- -- 60
2020-01-16 17:00:00 8.5 10 Sur 18 Sur 0 -- -- 86
2020-01-16 16:00:00 9.3 12 Sur 19 Sur 0 -- -- 99
2020-01-16 15:00:00 10.7 5 Sur 13 Sur 0 -- -- 84
2020-01-16 14:00:00 11.1 5 Sur 15 Sudoeste 0 -- -- 84
2020-01-16 13:00:00 10.9 8 Sur 14 Sudoeste 0 -- -- 70
2020-01-16 12:00:00 11.1 9 Sur 15 Sur 0 -- -- 54
2020-01-16 11:00:00 11 8 Sur 12 Sur 0 -- -- 51
2020-01-16 10:00:00 10.7 5 Sur 9 Sur 0 -- -- 49
2020-01-16 09:00:00 8.2 7 Sur 11 Sur 0 -- -- 58
2020-01-16 08:00:00 6.3 6 Noroeste 11 Noroeste 0 -- -- 61
2020-01-16 07:00:00 6.7 8 Noroeste 14 Noroeste 0 -- -- 61
2020-01-16 06:00:00 7.2 11 Noroeste 18 Noroeste 0 -- -- 59
2020-01-16 05:00:00 7.3 14 Noroeste 27 Noroeste 0 -- -- 58
2020-01-16 04:00:00 7.1 17 Noroeste 28 Noroeste 0 -- -- 59
2020-01-16 03:00:00 6.7 20 Noroeste 29 Noroeste 0 -- -- 62
2020-01-16 02:00:00 6.7 19 Noroeste 29 Norte 0 -- -- 66
2020-01-16 01:00:00 7 17 Norte 30 Norte 0 -- -- 65
2020-01-16 00:00:00 6.6 23 Norte 41 Noroeste 0 -- -- 70
2020-01-15 23:00:00 6.8 35 Noroeste 48 Noroeste 0 -- -- 70
2020-01-15 22:00:00 6.7 41 Noroeste 48 Noroeste 0 -- -- 70
2020-01-15 21:00:00 5.9 36 Noroeste 44 Noroeste 0 -- -- 73
2020-01-15 20:00:00 5.7 32 Noroeste 40 Noroeste 0 -- -- 72
2020-01-15 19:00:00 5.8 30 Noroeste 35 Noroeste 0 -- -- 64
2020-01-15 18:00:00 5.7 26 Noroeste 32 Noroeste 0 -- -- 66
2020-01-15 17:00:00 6.3 18 Noroeste 24 Noroeste 0 -- -- 68
2020-01-15 16:00:00 7.4 14 Noroeste 23 Norte 0 -- -- 57
2020-01-15 15:00:00 5.7 14 Sur 25 Sur 0 -- -- 99
2020-01-15 14:00:00 6.4 13 Sur 29 Sur 0 -- -- 99
2020-01-15 13:00:00 5.8 15 Sur 31 Sur 0 -- -- 99
2020-01-15 12:00:00 5.3 24 Sur 36 Sur 0 -- -- 99
2020-01-15 11:00:00 5.2 22 Sur 38 Sur 0 -- -- 99
2020-01-15 10:00:00 5.6 25 Sur 40 Sur 0 -- -- 99
2020-01-15 09:00:00 6.2 22 Sur 37 Sur 0 -- -- 99
2020-01-15 08:00:00 5.4 22 Sur 38 Sur 0 -- -- 99
2020-01-15 07:00:00 6 25 Sur 40 Sur 0 -- -- 99
2020-01-15 06:00:00 5.3 24 Sur 39 Sur 0.1 -- -- 99
2020-01-15 05:00:00 5.1 28 Sur 41 Sur 0 -- -- 99
2020-01-15 04:00:00 5.3 30 Sur 44 Sur 0 -- -- 99
2020-01-15 03:00:00 6.6 30 Sur 52 Sur 0 -- -- 99
2020-01-15 02:00:00 6.4 31 Sur 47 Sur 0 -- -- 99
2020-01-15 01:00:00 5.2 32 Sur 48 Sur 0 -- -- 99
2020-01-15 00:00:00 5.1 26 Sur 46 Sur 0 -- -- 99
2020-01-14 23:00:00 5.2 30 Sur 48 Sur 0 -- -- 99
2020-01-14 22:00:00 5.1 32 Sur 50 Sur 0 -- -- 99
2020-01-14 21:00:00 5.1 32 Sur 44 Sur 0 -- -- 99
2020-01-14 20:00:00 5.2 33 Sur 45 Sur 0 -- -- 99
2020-01-14 19:00:00 5.1 32 Sur 45 Sur 0 -- -- 99
2020-01-14 18:00:00 5.1 31 Sur 41 Sur 0 -- -- 99
2020-01-14 17:00:00 5 30 Sur 42 Sur 0 -- -- 99
2020-01-14 16:00:00 5.2 27 Sur 46 Sur 0 -- -- 99
2020-01-14 15:00:00 5.1 29 Sur 43 Sur 0 -- -- 99
2020-01-14 14:00:00 5.7 28 Sur 46 Sudeste 0 -- -- 99
2020-01-14 13:00:00 6 32 Sur 49 Sur 0 -- -- 99
2020-01-14 12:00:00 5.1 33 Sur 48 Sur 0 -- -- 99
2020-01-14 11:00:00 5.2 35 Sur 47 Sur 0 -- -- 99
2020-01-14 10:00:00 5.2 31 Sur 46 Sur 0 -- -- 99
2020-01-14 09:00:00 5.1 29 Sur 40 Sur 0 -- -- 99
2020-01-14 08:00:00 5 27 Sur 39 Sur 0 -- -- 99
2020-01-14 07:00:00 4.9 24 Sur 39 Sur 0 -- -- 99
2020-01-14 06:00:00 5 31 Sur 44 Sur 0 -- -- 99
2020-01-14 05:00:00 5.2 31 Sur 46 Sur 0 -- -- 99
2020-01-14 04:00:00 5.1 31 Sur 44 Sur 0 -- -- 99
2020-01-14 03:00:00 5.1 27 Sur 48 Sur 0 -- -- 99
2020-01-14 02:00:00 4.9 31 Sur 44 Sur 0 -- -- 99
2020-01-14 01:00:00 4.9 29 Sur 44 Sur 0 -- -- 99
2020-01-14 00:00:00 5.1 29 Sur 41 Sur 0 -- -- 99
2020-01-13 23:00:00 5 30 Sur 42 Sur 0 -- -- 99
2020-01-13 22:00:00 5.1 26 Sur 40 Sur 0 -- -- 99
2020-01-13 21:00:00 5 26 Sur 39 Sur 0 -- -- 99
2020-01-13 20:00:00 5 20 Sur 31 Sur 0 -- -- 99
2020-01-13 19:00:00 4.6 23 Sur 32 Sur 0 -- -- 99
2020-01-13 18:00:00 4.8 22 Sur 39 Sur 0 -- -- 99
2020-01-13 17:00:00 5 26 Sur 34 Sur 0 -- -- 99
2020-01-13 16:00:00 5.2 21 Sur 30 Sur 0 -- -- 94
2020-01-13 15:00:00 7.5 13 Sur 26 Sur 0 -- -- 79
2020-01-13 14:00:00 7.5 20 Sur 31 Sur 0 -- -- 85
2020-01-13 13:00:00 8.2 12 Sur 20 Sudoeste 0 -- -- 71
2020-01-13 12:00:00 8.6 13 Sur 22 Sudoeste 0 -- -- 43
2020-01-13 11:00:00 9.3 7 Sudoeste 15 Sudoeste 0 -- -- 44
2020-01-13 10:00:00 8 6 Oeste 19 Noroeste 0 -- -- 33
2020-01-13 09:00:00 6.9 10 Oeste 16 Noroeste 0 -- -- 35
2020-01-13 08:00:00 5 11 Noroeste 18 Noroeste 0 -- -- 42
2020-01-13 07:00:00 5.1 12 Noroeste 19 Oeste 0 -- -- 39
2020-01-13 06:00:00 4.8 13 Noroeste 24 Noroeste 0 -- -- 43
2020-01-13 05:00:00 4.5 19 Noroeste 28 Noroeste 0 -- -- 60
2020-01-13 04:00:00 4.3 19 Noroeste 23 Noroeste 0 -- -- 60
2020-01-13 03:00:00 4.7 14 Norte 27 Noroeste 0 -- -- 57
2020-01-13 02:00:00 4.5 22 Noroeste 29 Noroeste 0 -- -- 50
2020-01-13 01:00:00 4.5 15 Noroeste 23 Noroeste 0 -- -- 46
2020-01-13 00:00:00 4.3 10 Noroeste 15 Noroeste 0 -- -- 59
2020-01-12 23:00:00 4.4 8 Norte 11 Norte 0 -- -- 85
2020-01-12 22:00:00 4.4 9 Norte 12 Noroeste 0 -- -- 94
2020-01-12 21:00:00 4.8 5 Nordeste 9 Nordeste 0 -- -- 65
2020-01-12 20:00:00 5 6 Este 16 Sudeste 0 -- -- 52
2020-01-12 19:00:00 5.1 12 Este 18 Sudeste 0 -- -- 66
2020-01-12 18:00:00 5.1 12 Sudeste 18 Sudeste 0 -- -- 80
2020-01-12 17:00:00 6.4 9 Sur 18 Sur 0 -- -- 93
2020-01-12 16:00:00 7.4 8 Sur 16 Sudeste 0 -- -- 88
2020-01-12 15:00:00 7.6 10 Sudeste 22 Sudeste 0 -- -- 88
2020-01-12 14:00:00 4.8 9 Norte 19 Norte 0 -- -- 99
2020-01-12 13:00:00 4.2 12 Norte 32 Norte 0 -- -- 99
2020-01-12 12:00:00 3.7 20 Norte 31 Noroeste 0 -- -- 99
2020-01-12 11:00:00 3.3 28 Noroeste 36 Noroeste 0 -- -- 99
2020-01-12 10:00:00 3.3 29 Noroeste 43 Norte 0 -- -- 99
2020-01-12 09:00:00 3 32 Norte 44 Norte 0 -- -- 99
2020-01-12 08:00:00 2.8 35 Noroeste 44 Noroeste 0 -- -- 99
2020-01-12 07:00:00 2.9 30 Norte 39 Noroeste 0 -- -- 99
2020-01-12 06:00:00 2.9 30 Noroeste 42 Noroeste 0 -- -- 99
2020-01-12 05:00:00 2.7 32 Norte 44 Noroeste 0 -- -- 99
2020-01-12 04:00:00 3 31 Norte 47 Noroeste 0 -- -- 99
2020-01-12 03:00:00 2.9 33 Norte 47 Noroeste 0 -- -- 99
2020-01-12 02:00:00 3 33 Norte 46 Norte 0 -- -- 99
2020-01-12 01:00:00 3 37 Noroeste 50 Norte 0 -- -- 99
2020-01-12 00:00:00 3 35 Noroeste 45 Noroeste 0 -- -- 99
2020-01-11 23:00:00 2.9 29 Norte 47 Noroeste 0 -- -- 99
2020-01-11 22:00:00 2.9 34 Noroeste 50 Noroeste 0 -- -- 99
2020-01-11 21:00:00 2.9 36 Norte 55 Norte 0 -- -- 99
2020-01-11 20:00:00 2.9 42 Noroeste 61 Norte 0 -- -- 99
2020-01-11 19:00:00 2.9 49 Noroeste 71 Noroeste 0 -- -- 99
2020-01-11 18:00:00 2.8 59 Noroeste 76 Noroeste 0 -- -- 99
2020-01-11 17:00:00 3 57 Noroeste 76 Noroeste 0 -- -- 99
2020-01-11 16:00:00 3.3 57 Noroeste 75 Noroeste 0 -- -- 99
2020-01-11 15:00:00 3.8 60 Noroeste 83 Noroeste 0 -- -- 95
2020-01-11 14:00:00 3.7 47 Noroeste 70 Noroeste 0 -- -- 99
2020-01-11 13:00:00 4.1 39 Norte 62 Noroeste 0 -- -- 92
2020-01-11 12:00:00 4.3 27 Norte 47 Nordeste 0 -- -- 84
2020-01-11 11:00:00 4 20 Norte 42 Norte 0 -- -- 91
2020-01-11 10:00:00 3.6 23 Norte 49 Nordeste 0 -- -- 99
2020-01-11 09:00:00 3.5 29 Norte 52 Norte 0 -- -- 99
2020-01-11 08:00:00 4 26 Norte 47 Norte 0 -- -- 99
2020-01-11 07:00:00 3.9 27 Norte 44 Norte 0 -- -- 99
2020-01-11 06:00:00 4.1 25 Norte 41 Norte 0 -- -- 99
2020-01-11 05:00:00 4.1 21 Norte 50 Nordeste 0 -- -- 99
2020-01-11 04:00:00 4.1 23 Norte 69 Noroeste 0 -- -- 99
2020-01-11 03:00:00 4.2 48 Noroeste 73 Norte 0 -- -- 99
2020-01-11 02:00:00 4.2 53 Noroeste 76 Noroeste 0 -- -- 99
2020-01-11 01:00:00 4.3 53 Norte 79 Norte 0 -- -- 99
2020-01-11 00:00:00 4.5 41 Norte 69 Norte 0 -- -- 95
2020-01-10 23:00:00 4.6 40 Norte 66 Noroeste 0 -- -- 95
2020-01-10 22:00:00 4.8 37 Norte 60 Nordeste 0 -- -- 93
2020-01-10 21:00:00 4.8 36 Nordeste 59 Nordeste 0 -- -- 99
2020-01-10 20:00:00 5 32 Norte 72 Nordeste 0 -- -- 96
2020-01-10 19:00:00 4.7 45 Nordeste 76 Norte 0.1 -- -- 96
2020-01-10 18:00:00 4.7 39 Nordeste 60 Nordeste 0.2 -- -- 99
2020-01-10 17:00:00 5 25 Nordeste 45 Nordeste 2 -- -- 99
2020-01-10 16:00:00 5.2 13 Nordeste 30 Este 0.7 -- -- 99
2020-01-10 15:00:00 5.1 14 Nordeste 30 Este 1.5 -- -- 99
2020-01-10 14:00:00 5.2 12 Norte 16 Nordeste 1.9 -- -- 99
2020-01-10 13:00:00 5.2 13 Noroeste 17 Noroeste 0.6 -- -- 99
2020-01-10 12:00:00 5.4 5 Este 15 Sudeste 0 -- -- 99
2020-01-10 11:00:00 5.2 5 Nordeste 11 Norte 0 -- -- 99
2020-01-10 10:00:00 6 6 Nordeste 13 Norte 0 -- -- 97
2020-01-10 09:00:00 4.9 3 Nordeste 18 Norte 0 -- -- 99
2020-01-10 08:00:00 5.2 2 Sudoeste 9 Sur 0 -- -- 99
2020-01-10 07:00:00 5.1 6 Sur 20 Sur 0 -- -- 98
2020-01-10 06:00:00 4.9 12 Sur 18 Sur 0 -- -- 99
2020-01-10 05:00:00 5.2 9 Sur 18 Sudoeste 0 -- -- 96
2020-01-10 04:00:00 5.2 13 Sudoeste 18 Sudoeste 0 -- -- 88
2020-01-10 03:00:00 4.9 9 Sudoeste 13 Sudoeste 0 -- -- 99
2020-01-10 02:00:00 5.1 11 Sudoeste 24 Sur 0 -- -- 96
2020-01-10 01:00:00 5.1 26 Sur 40 Sur 0 -- -- 99
2020-01-10 00:00:00 5 28 Sur 38 Sudeste 0 -- -- 99
2020-01-09 23:00:00 5 16 Sur 20 Sur 0 -- -- 99
2020-01-09 22:00:00 5.1 13 Sur 26 Sur 0 -- -- 99
2020-01-09 21:00:00 5.2 8 Sur 18 Sur 0 -- -- 99
2020-01-09 20:00:00 5.6 13 Sur 19 Sur 0 -- -- 99
2020-01-09 19:00:00 5.7 13 Sur 20 Sur 0 -- -- 99
2020-01-09 18:00:00 6 12 Sur 17 Sur 0 -- -- 99
2020-01-09 17:00:00 6.9 7 Sur 18 Sur 0 -- -- 99
2020-01-09 16:00:00 8.2 12 Sur 19 Sur 0 -- -- 91
2020-01-09 15:00:00 7.4 8 Sur 19 Sur 0 -- -- 95
2020-01-09 14:00:00 7.2 8 Sur 22 Sudeste 0 -- -- 97
2020-01-09 13:00:00 7.9 15 Sur 25 Sur 0 -- -- 87
2020-01-09 12:00:00 8.1 18 Sur 28 Sudoeste 0 -- -- 85
2020-01-09 11:00:00 8.2 20 Sur 30 Sur 0 -- -- 86
2020-01-09 10:00:00 6.9 22 Sudeste 28 Sudeste 0 -- -- 88
2020-01-09 09:00:00 5.6 18 Sudeste 23 Sudeste 0 -- -- 88
2020-01-09 08:00:00 4.1 15 Sudeste 20 Sudeste 0 -- -- 98
2020-01-09 07:00:00 4.3 13 Este 16 Este 0 -- -- 95
2020-01-09 06:00:00 4.8 8 Norte 13 Este 0 -- -- 71
2020-01-09 05:00:00 6.2 9 Nordeste 22 Este 0 -- -- 44
2020-01-09 04:00:00 5.2 17 Este 22 Este 0 -- -- 55
2020-01-09 03:00:00 5.6 13 Este 25 Este 0 -- -- 38
2020-01-09 02:00:00 5.1 21 Este 27 Sudeste 0 -- -- 50
2020-01-09 01:00:00 6.1 16 Este 24 Este 0 -- -- 51
2020-01-09 00:00:00 5.2 16 Este 31 Este 0 -- -- 68
2020-01-08 23:00:00 6.4 14 Nordeste 23 Nordeste 0 -- -- 43
2020-01-08 22:00:00 6.6 12 Nordeste 23 Nordeste 0 -- -- 46
2020-01-08 21:00:00 6.7 15 Nordeste 20 Nordeste 0 -- -- 45
2020-01-08 20:00:00 7 9 Nordeste 19 Nordeste 0 -- -- 56
2020-01-08 19:00:00 5.8 10 Nordeste 15 Este 0 -- -- 69
2020-01-08 18:00:00 6.6 6 Norte 9 Norte 0 -- -- 99
2020-01-08 17:00:00 7.7 4 Noroeste 11 Sudeste 0 -- -- 96
2020-01-08 16:00:00 9.2 0 Calma 14 Sudoeste 0 -- -- 90
2020-01-08 15:00:00 9.3 7 Sur 18 Sur 0 -- -- 87
2020-01-08 14:00:00 8.4 4 Nordeste 18 Sudeste 0 -- -- 92
2020-01-08 13:00:00 6.8 10 Noroeste 40 Noroeste 0 -- -- 99
2020-01-08 12:00:00 5.5 27 Norte 53 Norte 0 -- -- 99
2020-01-08 11:00:00 6.5 37 Norte 50 Norte 0 -- -- 79
2020-01-08 10:00:00 8.2 36 Norte 62 Nordeste 0 -- -- 62
2020-01-08 09:00:00 8.5 36 Norte 55 Norte 0 -- -- 57
2020-01-08 08:00:00 6.1 32 Noroeste 49 Noroeste 0 -- -- 81
2020-01-08 07:00:00 6.8 26 Norte 37 Norte 0 -- -- 75
2020-01-08 06:00:00 7.4 26 Norte 35 Norte 0 -- -- 63
2020-01-08 05:00:00 7.3 9 Norte 14 Nordeste 0 -- -- 56
2020-01-08 04:00:00 8.5 14 Este 19 Sudeste 0 -- -- 63
2020-01-08 03:00:00 9.6 17 Sudeste 22 Sudeste 0 -- -- 41
2020-01-08 02:00:00 9.7 13 Sudeste 17 Sudeste 0 -- -- 26
2020-01-08 01:00:00 10.1 14 Sudeste 15 Sudeste 0 -- -- 25
2020-01-08 00:00:00 10.1 8 Este 11 Nordeste 0 -- -- 26
2020-01-07 23:00:00 7.9 6 Norte 16 Norte 0 -- -- 41
2020-01-07 22:00:00 8.7 8 Norte 14 Noroeste 0 -- -- 38
2020-01-07 21:00:00 8.4 5 Norte 13 Norte 0 -- -- 40
2020-01-07 20:00:00 8.1 5 Norte 8 Nordeste 0 -- -- 46
2020-01-07 19:00:00 8.9 5 Sur 7 Sur 0 -- -- 35
2020-01-07 18:00:00 6 5 Nordeste 9 Oeste 0 -- -- 76
2020-01-07 17:00:00 5.2 6 Noroeste 13 Nordeste 0 -- -- 99
2020-01-07 16:00:00 6.3 10 Nordeste 20 Sudeste 0 -- -- 99
2020-01-07 15:00:00 7.5 8 Este 18 Sudeste 0 -- -- 99
2020-01-07 14:00:00 7.2 10 Nordeste 15 Nordeste 0 -- -- 99
2020-01-07 13:00:00 8.3 9 Sudeste 17 Norte 0 -- -- 99
2020-01-07 12:00:00 6.9 8 Norte 26 Noroeste 0 -- -- 99
2020-01-07 11:00:00 6.2 17 Norte 26 Norte 0 -- -- 99
2020-01-07 10:00:00 6.4 15 Norte 33 Norte 0 -- -- 99
2020-01-07 09:00:00 6.3 23 Noroeste 29 Noroeste 0 -- -- 99
2020-01-07 08:00:00 5.3 21 Norte 32 Norte 0 -- -- 99
2020-01-07 07:00:00 5.1 22 Norte 29 Noroeste 0 -- -- 99
2020-01-07 06:00:00 4.9 6 Norte 24 Este 0 -- -- 99
2020-01-07 05:00:00 5.1 16 Norte 30 Noroeste 0.1 -- -- 99
2020-01-07 04:00:00 5.3 22 Noroeste 32 Noroeste 0 -- -- 99
2020-01-07 03:00:00 5.2 24 Norte 40 Noroeste 0 -- -- 99
2020-01-07 02:00:00 5.2 20 Norte 41 Norte 0 -- -- 99
2020-01-07 01:00:00 6.2 30 Noroeste 48 Noroeste 0.1 -- -- 99
2020-01-07 00:00:00 6.5 32 Noroeste 48 Norte 0.1 -- -- 99
2020-01-06 23:00:00 6.8 32 Noroeste 43 Noroeste 0 -- -- 99
2020-01-06 22:00:00 5.6 21 Norte 33 Norte 0 -- -- 99
2020-01-06 21:00:00 6.2 22 Norte 34 Norte 0 -- -- 99
2020-01-06 20:00:00 5.8 24 Norte 32 Norte 0.1 -- -- 99
2020-01-06 19:00:00 5.7 19 Norte 24 Noroeste 0 -- -- 99
2020-01-06 18:00:00 5.3 15 Norte 23 Norte 0 -- -- 99
2020-01-06 17:00:00 5.6 14 Norte 24 Norte 0 -- -- 99
2020-01-06 16:00:00 5.8 14 Norte 25 Norte 0 -- -- 99
2020-01-06 15:00:00 5.7 12 Noroeste 19 Norte 0 -- -- 99
2020-01-06 14:00:00 5.2 15 Noroeste 21 Norte 0 -- -- 99
2020-01-06 13:00:00 6.3 14 Noroeste 28 Noroeste 0 -- -- 99
2020-01-06 12:00:00 5.6 16 Noroeste 23 Norte 0 -- -- 99
2020-01-06 11:00:00 5.3 12 Noroeste 27 Noroeste 0 -- -- 99
2020-01-06 10:00:00 5.3 17 Norte 31 Norte 0 -- -- 99